createdAt,value
2018-08-10T00:02:12.296Z,60.19
2018-08-10T00:04:51.189Z,61.31
2018-08-10T00:07:27.291Z,59.44
2018-08-10T00:12:46.005Z,59.70
2018-08-10T00:15:28.964Z,60.10
2018-08-10T00:18:09.565Z,60.94
2018-08-10T00:20:53.300Z,61.03
2018-08-10T00:23:32.738Z,62.14
2018-08-10T00:26:08.757Z,62.50
2018-08-10T00:28:44.351Z,63.70
2018-08-10T00:34:14.746Z,64.03
2018-08-10T00:36:43.703Z,63.56
2018-08-10T00:39:14.570Z,63.05
2018-08-10T00:41:44.364Z,63.04
2018-08-10T00:44:13.296Z,62.97
2018-08-10T00:46:42.851Z,63.43
2018-08-10T00:49:12.432Z,63.75
2018-08-10T00:51:41.255Z,63.00
2018-08-10T00:54:10.044Z,62.66
2018-08-10T00:56:39.008Z,62.83
2018-08-10T00:59:40.290Z,62.67
2018-08-10T01:02:09.099Z,62.46
2018-08-10T01:04:38.031Z,62.49
2018-08-10T01:07:07.151Z,62.99
2018-08-10T01:09:35.988Z,61.87
2018-08-10T01:12:04.836Z,61.97
2018-08-10T01:14:33.818Z,63.22
2018-08-10T01:17:02.698Z,62.92
2018-08-10T01:19:31.577Z,62.18
2018-08-10T01:22:00.457Z,62.83
2018-08-10T01:24:29.310Z,63.35
2018-08-10T01:26:58.108Z,63.10
2018-08-10T01:29:27.036Z,62.68
2018-08-10T01:31:55.910Z,63.75
2018-08-10T01:34:24.883Z,63.14
2018-08-10T01:36:53.824Z,63.65
2018-08-10T01:39:22.776Z,63.95
2018-08-10T01:41:51.672Z,63.65
2018-08-10T01:44:20.560Z,63.73
2018-08-10T01:46:49.497Z,63.04
2018-08-10T01:49:18.352Z,63.29
2018-08-10T01:51:51.104Z,62.83
2018-08-10T01:54:20.062Z,63.45
2018-08-10T01:56:48.944Z,63.69
2018-08-10T01:59:17.898Z,62.79
2018-08-10T02:01:46.952Z,62.84
2018-08-10T02:04:15.920Z,62.21
2018-08-10T02:09:19.024Z,64.14
2018-08-10T02:11:47.934Z,64.28
2018-08-10T02:14:16.830Z,64.52
2018-08-10T02:16:45.799Z,64.10
2018-08-10T02:19:14.818Z,63.53
2018-08-10T02:24:19.496Z,64.37
2018-08-10T02:26:48.513Z,63.51
2018-08-10T02:29:17.984Z,63.67
2018-08-10T02:31:47.407Z,63.83
2018-08-10T02:34:16.904Z,63.42
2018-08-10T02:36:45.801Z,63.63
2018-08-10T02:39:14.722Z,64.99
2018-08-10T02:41:43.798Z,65.46
2018-08-10T02:44:12.715Z,64.73
2018-08-10T02:46:41.565Z,64.73
2018-08-10T02:49:10.472Z,65.68
2018-08-10T02:51:39.230Z,65.79
2018-08-10T02:54:08.089Z,65.14
2018-08-10T02:56:37.318Z,64.05
2018-08-10T02:59:06.566Z,63.81
2018-08-10T03:01:35.439Z,63.94
2018-08-10T03:04:04.405Z,64.20
2018-08-10T03:06:33.289Z,64.46
2018-08-10T03:09:02.184Z,63.54
2018-08-10T03:11:31.230Z,64.82
2018-08-10T03:14:01.152Z,64.12
2018-08-10T03:16:30.079Z,65.04
2018-08-10T03:18:59.011Z,65.37
2018-08-10T03:24:05.842Z,64.52
2018-08-10T03:26:34.882Z,65.15
2018-08-10T03:29:03.752Z,65.11
2018-08-10T03:31:33.292Z,64.54
2018-08-10T03:34:02.354Z,64.24
2018-08-10T03:36:32.139Z,65.01
2018-08-10T03:41:37.631Z,65.34
2018-08-10T03:44:08.226Z,65.60
2018-08-10T03:46:38.125Z,65.15
2018-08-10T03:49:07.296Z,64.58
2018-08-10T03:51:37.216Z,64.59
2018-08-10T03:54:06.799Z,65.45
2018-08-10T03:56:35.998Z,65.64
2018-08-10T03:59:05.121Z,65.13
2018-08-10T04:01:34.873Z,64.76
2018-08-10T04:04:03.858Z,63.72
2018-08-10T04:06:33.417Z,63.44
2018-08-10T04:09:02.466Z,64.89
2018-08-10T04:11:32.440Z,65.03
2018-08-10T04:16:43.182Z,64.93
2018-08-10T04:19:12.183Z,65.80
2018-08-10T04:21:41.608Z,65.65
2018-08-10T04:26:45.990Z,64.01
2018-08-10T04:29:15.897Z,64.60
2018-08-10T04:31:44.955Z,63.72
2018-08-10T04:34:14.169Z,63.69
2018-08-10T04:36:44.324Z,62.58
2018-08-10T04:39:18.073Z,61.51
2018-08-10T04:41:47.943Z,62.38
2018-08-10T04:44:17.360Z,61.85
2018-08-10T04:46:47.289Z,62.20
2018-08-10T04:49:17.328Z,62.26
2018-08-10T04:51:46.988Z,62.54
2018-08-10T04:54:17.777Z,62.53
2018-08-10T04:56:48.303Z,62.42
2018-08-10T04:59:19.016Z,61.61
2018-08-10T05:01:49.792Z,61.23
2018-08-10T05:04:21.306Z,62.23
2018-08-10T05:06:50.259Z,61.27
2018-08-10T05:09:19.920Z,60.91
2018-08-10T05:11:49.484Z,61.13
2018-08-10T05:14:22.441Z,59.86
2018-08-10T05:16:52.159Z,59.28
2018-08-10T05:19:21.047Z,59.62
2018-08-10T05:21:49.976Z,58.29
2018-08-10T05:24:19.427Z,59.75
2018-08-10T05:26:48.457Z,58.89
2018-08-10T05:29:18.852Z,58.73
2018-08-10T05:31:48.925Z,58.69
2018-08-10T05:34:19.278Z,58.34
2018-08-10T05:36:49.365Z,57.44
2018-08-10T05:39:18.226Z,57.58
2018-08-10T05:41:47.622Z,56.46
2018-08-10T05:44:17.420Z,56.61
2018-08-10T05:46:47.390Z,56.63
2018-08-10T05:49:18.992Z,55.99
2018-08-10T05:51:49.543Z,56.85
2018-08-10T05:54:19.184Z,55.90
2018-08-10T05:56:50.028Z,54.68
2018-08-10T05:59:19.507Z,54.22
2018-08-10T06:01:48.393Z,53.32
2018-08-10T06:04:18.881Z,52.78
2018-08-10T06:06:49.248Z,53.22
2018-08-10T06:09:18.734Z,52.37
2018-08-10T06:11:49.233Z,51.49
2018-08-10T06:14:18.979Z,52.36
2018-08-10T06:16:48.019Z,50.97
2018-08-10T06:19:17.834Z,49.98
2018-08-10T06:21:47.107Z,50.27
2018-08-10T06:24:18.154Z,49.59
2018-08-10T06:26:47.313Z,48.92
2018-08-10T06:29:17.315Z,48.54
2018-08-10T06:31:46.762Z,47.45
2018-08-10T06:34:15.752Z,47.18
2018-08-10T06:36:48.343Z,47.90
2018-08-10T06:39:18.774Z,46.42
2018-08-10T06:41:48.436Z,46.58
2018-08-10T06:44:18.808Z,45.35
2018-08-10T06:46:48.547Z,44.55
2018-08-10T06:49:18.938Z,44.29
2018-08-10T06:51:50.089Z,46.02
2018-08-10T06:56:55.960Z,46.21
2018-08-10T06:59:25.946Z,48.90
2018-08-10T07:01:55.388Z,47.99
2018-08-10T07:04:26.727Z,45.90
2018-08-10T07:06:55.833Z,46.10
2018-08-10T07:09:25.572Z,46.93
2018-08-10T07:11:54.509Z,45.27
2018-08-10T07:14:23.331Z,44.66
2018-08-10T07:16:52.188Z,45.68
2018-08-10T07:19:21.428Z,46.17
2018-08-10T07:21:53.539Z,46.25
2018-08-10T07:24:24.180Z,45.81
2018-08-10T07:26:55.832Z,45.66
2018-08-10T07:29:25.949Z,45.10
2018-08-10T07:31:57.617Z,44.16
2018-08-10T07:34:27.280Z,44.99
2018-08-10T07:36:57.285Z,43.81
2018-08-10T07:39:26.590Z,44.31
2018-08-10T07:41:57.211Z,44.66
2018-08-10T07:44:26.611Z,43.47
2018-08-10T07:46:56.490Z,43.42
2018-08-10T07:49:25.325Z,44.26
2018-08-10T07:51:54.745Z,43.04
2018-08-10T07:54:23.516Z,45.82
2018-08-10T07:56:52.520Z,45.54
2018-08-10T07:59:21.393Z,43.19
2018-08-10T08:01:50.825Z,42.42
2018-08-10T08:04:23.168Z,43.12
2018-08-10T08:06:51.897Z,43.38
2018-08-10T08:09:20.760Z,41.11
2018-08-10T08:11:49.604Z,41.00
2018-08-10T08:14:18.510Z,41.77
2018-08-10T08:16:47.469Z,42.64
2018-08-10T08:19:16.308Z,44.59
2018-08-10T08:21:56.226Z,42.84
2018-08-10T08:24:25.234Z,42.25
2018-08-10T08:26:54.116Z,42.27
2018-08-10T08:29:22.978Z,42.56
2018-08-10T08:31:51.725Z,40.70
2018-08-10T08:34:20.456Z,39.05
2018-08-10T08:36:49.218Z,39.68
2018-08-10T08:40:26.855Z,39.30
2018-08-10T08:42:55.667Z,39.37
2018-08-10T08:45:38.885Z,40.36
2018-08-10T08:48:07.748Z,39.09
2018-08-10T08:50:39.144Z,37.13
2018-08-10T08:53:08.140Z,40.06
2018-08-10T08:55:39.921Z,38.13
2018-08-10T08:58:09.379Z,39.46
2018-08-10T09:00:38.252Z,39.78
2018-08-10T09:03:10.421Z,41.74
2018-08-10T09:05:39.187Z,40.86
2018-08-10T09:08:08.258Z,40.92
2018-08-10T09:10:38.009Z,39.60
2018-08-10T09:13:06.829Z,41.64
2018-08-10T09:15:35.595Z,41.73
2018-08-10T09:20:39.438Z,44.59
2018-08-10T09:23:08.882Z,45.82
2018-08-10T09:25:37.691Z,44.12
2018-08-10T09:28:06.485Z,44.61
2018-08-10T09:30:35.260Z,44.54
2018-08-10T09:33:04.346Z,42.58
2018-08-10T09:35:33.228Z,42.01
2018-08-10T09:38:02.145Z,45.48
2018-08-10T09:40:31.009Z,42.18
2018-08-10T09:42:59.820Z,44.37
2018-08-10T09:45:28.748Z,43.79
2018-08-10T09:47:57.660Z,43.52
2018-08-10T09:50:26.551Z,42.31
2018-08-10T09:53:11.781Z,43.27
2018-08-10T09:55:41.882Z,43.70
2018-08-10T09:58:15.976Z,44.33
2018-08-10T10:00:50.696Z,45.48
2018-08-10T10:03:21.921Z,45.14
2018-08-10T10:05:51.876Z,44.58
2018-08-10T10:08:21.426Z,42.41
2018-08-10T10:10:51.304Z,45.13
2018-08-10T10:13:20.127Z,44.19
2018-08-10T10:15:49.585Z,42.90
2018-08-10T10:18:18.905Z,41.61
2018-08-10T10:20:48.344Z,43.94
2018-08-10T10:23:17.584Z,42.32
2018-08-10T10:25:46.408Z,43.52
2018-08-10T10:28:15.596Z,42.39
2018-08-10T10:30:44.645Z,45.54
2018-08-10T10:33:13.546Z,44.97
2018-08-10T10:35:42.322Z,44.28
2018-08-10T10:38:11.140Z,44.77
2018-08-10T10:40:39.908Z,44.49
2018-08-10T10:43:08.634Z,45.53
2018-08-10T10:45:38.226Z,44.74
2018-08-10T10:48:11.278Z,44.15
2018-08-10T10:50:40.060Z,41.67
2018-08-10T10:53:08.918Z,40.68
2018-08-10T10:55:37.875Z,41.81
2018-08-10T10:58:06.732Z,38.98
2018-08-10T11:00:35.714Z,40.31
2018-08-10T11:03:04.917Z,43.43
2018-08-10T11:05:33.835Z,40.64
2018-08-10T11:08:02.691Z,40.37
2018-08-10T11:10:31.470Z,41.72
2018-08-10T11:13:00.332Z,41.54
2018-08-10T11:15:30.156Z,41.76
2018-08-10T11:17:59.116Z,42.27
2018-08-10T11:20:27.887Z,41.60
2018-08-10T11:22:56.695Z,41.87
2018-08-10T11:25:25.887Z,42.31
2018-08-10T11:27:54.828Z,41.62
2018-08-10T11:30:23.712Z,42.27
2018-08-10T11:32:52.483Z,43.86
2018-08-10T11:35:21.293Z,42.88
2018-08-10T11:37:50.332Z,43.44
2018-08-10T11:40:22.066Z,43.37
2018-08-10T11:42:51.304Z,44.20
2018-08-10T11:45:22.813Z,43.25
2018-08-10T11:47:51.599Z,42.63
2018-08-10T11:50:25.454Z,43.73
2018-08-10T11:52:54.295Z,44.95
2018-08-10T11:55:24.550Z,43.92
2018-08-10T11:57:54.587Z,43.48
2018-08-10T12:00:23.408Z,42.83
2018-08-10T12:02:52.215Z,42.80
2018-08-10T12:05:21.672Z,42.26
2018-08-10T12:07:51.681Z,43.37
2018-08-10T12:10:22.655Z,43.16
2018-08-10T12:12:51.885Z,43.18
2018-08-10T12:15:21.766Z,43.82
2018-08-10T12:17:55.324Z,44.15
2018-08-10T12:20:24.106Z,43.13
2018-08-10T12:22:53.813Z,44.51
2018-08-10T12:25:22.649Z,43.09
2018-08-10T12:27:51.715Z,43.01
2018-08-10T12:30:21.698Z,44.11
2018-08-10T12:32:50.459Z,45.50
2018-08-10T12:35:19.552Z,44.57
2018-08-10T12:37:48.508Z,44.87
2018-08-10T12:40:17.438Z,43.34
2018-08-10T12:42:46.585Z,45.26
2018-08-10T12:45:15.498Z,44.51
2018-08-10T12:47:44.454Z,42.94
2018-08-10T12:50:13.273Z,42.93
2018-08-10T12:52:42.149Z,43.79
2018-08-10T12:55:11.354Z,43.63
2018-08-10T12:57:40.444Z,43.31
2018-08-10T13:00:11.585Z,44.43
2018-08-10T13:02:40.645Z,46.12
2018-08-10T13:05:09.868Z,47.50
2018-08-10T13:07:39.515Z,50.30
2018-08-10T13:10:10.288Z,54.85
2018-08-10T13:12:39.134Z,56.81
2018-08-10T13:15:09.616Z,59.57
2018-08-10T13:17:39.740Z,62.93
2018-08-10T13:20:11.097Z,63.42
2018-08-10T13:22:40.887Z,64.84
2018-08-10T13:25:11.003Z,67.34
2018-08-10T13:27:40.101Z,67.09
2018-08-10T13:30:10.653Z,68.12
2018-08-10T13:32:39.499Z,67.87
2018-08-10T13:35:08.527Z,66.14
2018-08-10T13:37:37.481Z,66.39
2018-08-10T13:40:06.417Z,66.33
2018-08-10T13:42:35.310Z,65.03
2018-08-10T13:45:06.342Z,65.16
2018-08-10T13:47:36.156Z,65.39
2018-08-10T13:50:07.326Z,64.17
2018-08-10T13:52:37.153Z,63.65
2018-08-10T13:55:06.383Z,64.38
2018-08-10T13:57:35.344Z,65.12
2018-08-10T14:00:05.299Z,65.50
2018-08-10T14:02:34.462Z,65.92
2018-08-10T14:05:05.182Z,65.97
2018-08-10T14:07:34.116Z,65.95
2018-08-10T14:10:03.006Z,64.26
2018-08-10T14:12:32.537Z,64.46
2018-08-10T14:15:01.470Z,63.58
2018-08-10T14:17:30.768Z,63.10
2018-08-10T14:19:59.726Z,62.78
2018-08-10T14:22:28.472Z,63.15
2018-08-10T14:24:57.296Z,63.01
2018-08-10T14:27:32.695Z,61.37
2018-08-10T14:30:03.564Z,61.23
2018-08-10T14:32:34.286Z,61.48
2018-08-10T14:35:06.335Z,61.77
2018-08-10T14:37:38.417Z,60.40
2018-08-10T14:40:11.736Z,60.85
2018-08-10T14:42:42.878Z,60.60
2018-08-10T14:45:15.516Z,59.54
2018-08-10T14:47:47.578Z,59.40
2018-08-10T14:50:16.501Z,59.30
2018-08-10T14:52:49.170Z,59.41
2018-08-10T14:55:19.309Z,58.70
2018-08-10T14:57:49.568Z,58.60
2018-08-10T15:00:19.965Z,59.22
2018-08-10T15:02:49.084Z,58.53
2018-08-10T15:05:18.408Z,60.21
2018-08-10T15:07:47.287Z,59.36
2018-08-10T15:10:17.071Z,60.18
2018-08-10T15:12:46.668Z,60.24
2018-08-10T15:15:17.737Z,59.24
2018-08-10T15:17:47.141Z,60.60
2018-08-10T15:20:19.571Z,60.89
2018-08-10T15:22:49.193Z,59.16
2018-08-10T15:25:18.038Z,59.67
2018-08-10T15:27:46.937Z,59.67
2018-08-10T15:30:17.683Z,59.05
2018-08-10T15:32:46.630Z,60.61
2018-08-10T15:35:16.822Z,60.26
2018-08-10T15:37:46.285Z,61.08
2018-08-10T15:40:17.693Z,60.13
2018-08-10T15:42:46.999Z,61.04
2018-08-10T15:45:16.863Z,61.61
2018-08-10T15:47:46.437Z,60.65
2018-08-10T15:50:15.585Z,60.55
2018-08-10T15:52:45.600Z,61.35
2018-08-10T15:55:15.801Z,61.01
2018-08-10T15:57:44.764Z,62.30
2018-08-10T16:00:21.062Z,61.51
2018-08-10T16:02:50.007Z,61.68
2018-08-10T16:05:18.923Z,61.99
2018-08-10T16:10:22.823Z,63.37
2018-08-10T16:12:51.661Z,64.65
2018-08-10T16:15:20.490Z,63.77
2018-08-10T16:17:49.778Z,64.70
2018-08-10T16:20:21.543Z,64.03
2018-08-10T16:22:51.257Z,64.95
2018-08-10T16:25:20.159Z,64.38
2018-08-10T16:27:48.977Z,64.49
2018-08-10T16:32:52.220Z,65.70
2018-08-10T16:35:21.205Z,65.99
2018-08-10T16:37:53.970Z,63.92
2018-08-10T16:40:22.825Z,63.89
2018-08-10T16:42:51.686Z,63.87
2018-08-10T16:45:20.546Z,64.89
2018-08-10T16:47:49.382Z,65.03
2018-08-10T16:50:19.393Z,64.92
2018-08-10T16:52:48.398Z,64.79
2018-08-10T16:55:20.267Z,64.15
2018-08-10T16:57:49.848Z,63.69
2018-08-10T17:00:21.000Z,63.88
2018-08-10T17:02:49.995Z,65.31
2018-08-10T17:05:18.964Z,64.81
2018-08-10T17:07:47.852Z,63.43
2018-08-10T17:10:16.751Z,64.52
2018-08-10T17:12:46.007Z,64.89
2018-08-10T17:15:16.839Z,65.48
2018-08-10T17:17:46.417Z,65.17
2018-08-10T17:20:15.935Z,64.45
2018-08-10T17:22:46.165Z,64.32
2018-08-10T17:25:16.493Z,65.36
2018-08-10T17:27:45.347Z,65.45
2018-08-10T17:30:15.834Z,66.63
2018-08-10T17:32:44.728Z,65.79
2018-08-10T17:35:14.801Z,66.20
2018-08-10T17:40:21.341Z,67.27
2018-08-10T17:42:50.844Z,67.75
2018-08-10T17:45:20.186Z,67.31
2018-08-10T17:47:49.102Z,66.88
2018-08-10T17:50:19.694Z,66.62
2018-08-10T17:55:26.089Z,67.48
2018-08-10T17:57:54.879Z,67.13
2018-08-10T18:00:26.380Z,67.30
2018-08-10T18:02:55.358Z,67.96
2018-08-10T18:05:30.869Z,68.17
2018-08-10T18:08:02.962Z,67.98
2018-08-10T18:10:39.061Z,67.66
2018-08-10T18:13:07.907Z,67.30
2018-08-10T18:15:36.762Z,66.40
2018-08-10T18:18:05.680Z,66.67
2018-08-10T18:20:34.559Z,65.92
2018-08-10T18:23:03.517Z,64.69
2018-08-10T18:25:32.381Z,65.43
2018-08-10T18:28:01.258Z,65.34
2018-08-10T18:30:30.218Z,66.23
2018-08-10T18:32:59.137Z,65.81
2018-08-10T18:35:28.073Z,66.41
2018-08-10T18:37:56.919Z,65.79
2018-08-10T18:40:25.860Z,65.53
2018-08-10T18:43:03.380Z,64.89
2018-08-10T18:45:39.310Z,65.69
2018-08-10T18:48:13.625Z,65.71
2018-08-10T18:50:44.762Z,65.39
2018-08-10T18:53:14.057Z,64.43
2018-08-10T18:55:43.953Z,64.75
2018-08-10T18:58:15.318Z,64.71
2018-08-10T19:00:44.894Z,63.88
2018-08-10T19:03:13.988Z,64.87
2018-08-10T19:05:45.545Z,63.73
2018-08-10T19:08:14.576Z,63.43
2018-08-10T19:10:44.408Z,63.87
2018-08-10T19:13:14.102Z,64.98
2018-08-10T19:15:44.065Z,65.63
2018-08-10T19:20:54.793Z,65.11
2018-08-10T19:23:27.169Z,64.79
2018-08-10T19:25:56.641Z,62.57
2018-08-10T19:28:25.510Z,63.85
2018-08-10T19:30:55.285Z,63.79
2018-08-10T19:33:29.588Z,63.55
2018-08-10T19:36:01.587Z,64.47
2018-08-10T19:38:33.045Z,63.14
2018-08-10T19:41:02.531Z,61.91
2018-08-10T19:43:31.498Z,62.78
2018-08-10T19:46:00.328Z,63.33
2018-08-10T19:48:29.591Z,63.71
2018-08-10T19:50:58.541Z,62.76
2018-08-10T19:53:30.892Z,63.72
2018-08-10T19:55:59.927Z,63.69
2018-08-10T19:58:28.860Z,62.27
2018-08-10T20:00:57.799Z,63.50
2018-08-10T20:03:26.816Z,64.85
2018-08-10T20:05:55.702Z,64.21
2018-08-10T20:08:24.614Z,64.51
2018-08-10T20:10:53.481Z,63.98
2018-08-10T20:13:22.480Z,63.71
2018-08-10T20:15:51.556Z,63.89
2018-08-10T20:18:21.066Z,63.13
2018-08-10T20:20:51.391Z,63.23
2018-08-10T20:23:22.702Z,63.20
2018-08-10T20:25:52.567Z,63.01
2018-08-10T20:28:21.430Z,62.98
2018-08-10T20:30:51.816Z,62.35
2018-08-10T20:33:22.176Z,63.34
2018-08-10T20:35:52.647Z,62.76
2018-08-10T20:38:21.632Z,62.76
2018-08-10T20:40:51.245Z,62.80
2018-08-10T20:43:20.018Z,63.22
2018-08-10T20:45:49.631Z,62.72
2018-08-10T20:48:18.519Z,64.84
2018-08-10T20:50:47.387Z,65.24
2018-08-10T20:53:16.176Z,63.52
2018-08-10T20:55:44.946Z,63.04
2018-08-10T21:00:48.332Z,63.61
2018-08-10T21:03:17.157Z,64.13
2018-08-10T21:05:45.919Z,63.15
2018-08-10T21:08:15.028Z,64.21
2018-08-10T21:10:43.928Z,64.10
2018-08-10T21:13:12.707Z,63.97
2018-08-10T21:15:41.567Z,64.06
2018-08-10T21:18:10.414Z,63.04
2018-08-10T21:20:39.205Z,61.64
2018-08-10T21:23:09.840Z,61.48
2018-08-10T21:25:39.199Z,62.27
2018-08-10T21:28:08.266Z,62.20
2018-08-10T21:30:37.192Z,63.03
2018-08-10T21:33:06.069Z,62.66
2018-08-10T21:35:36.222Z,61.91
2018-08-10T21:38:05.115Z,62.62
2018-08-10T21:40:34.080Z,62.21
2018-08-10T21:43:03.013Z,62.97
2018-08-10T21:45:31.881Z,62.83
2018-08-10T21:48:01.592Z,59.94
2018-08-10T21:50:31.106Z,61.37
2018-08-10T21:53:01.991Z,61.08
2018-08-10T21:55:31.580Z,61.07
2018-08-10T21:58:01.679Z,61.18
2018-08-10T22:00:40.120Z,62.42
2018-08-10T22:03:10.491Z,62.11
2018-08-10T22:05:40.136Z,63.13
2018-08-10T22:08:09.014Z,62.65
2018-08-10T22:10:37.906Z,63.30
2018-08-10T22:13:07.175Z,61.59
2018-08-10T22:15:41.279Z,62.56
2018-08-10T22:18:15.424Z,62.46
2018-08-10T22:20:44.581Z,62.74
2018-08-10T22:23:13.598Z,62.59
2018-08-10T22:25:42.559Z,62.30
2018-08-10T22:28:12.126Z,62.81
2018-08-10T22:30:41.541Z,63.20
2018-08-10T22:33:10.604Z,63.22
2018-08-10T22:35:39.696Z,62.79
2018-08-10T22:38:08.599Z,62.60
2018-08-10T22:40:37.503Z,62.50
2018-08-10T22:43:06.781Z,62.93
2018-08-10T22:45:35.740Z,62.66
2018-08-10T22:48:04.772Z,62.92
2018-08-10T22:50:34.397Z,63.19
2018-08-10T22:53:03.910Z,63.62
2018-08-10T22:55:33.025Z,63.07
2018-08-10T22:58:02.161Z,63.90
2018-08-10T23:00:31.057Z,64.19
2018-08-10T23:03:00.297Z,62.89
2018-08-10T23:05:29.292Z,62.14
2018-08-10T23:07:58.176Z,62.81
2018-08-10T23:10:27.103Z,62.56
2018-08-10T23:12:55.960Z,63.10
2018-08-10T23:15:24.898Z,63.59
2018-08-10T23:17:53.711Z,64.74
2018-08-10T23:20:22.689Z,63.63
2018-08-10T23:22:51.511Z,63.75
2018-08-10T23:25:20.301Z,64.09
2018-08-10T23:27:52.996Z,63.88
2018-08-10T23:30:22.936Z,64.46
2018-08-10T23:32:51.793Z,64.64
2018-08-10T23:35:20.639Z,65.23
2018-08-10T23:37:50.166Z,66.30
2018-08-10T23:40:19.029Z,65.63
2018-08-10T23:42:49.148Z,65.16
2018-08-10T23:45:18.085Z,65.30
2018-08-10T23:47:46.913Z,64.32
2018-08-10T23:50:17.116Z,65.39
2018-08-10T23:52:46.384Z,66.29
2018-08-10T23:55:17.964Z,65.87
2018-08-10T23:57:46.908Z,65.78
